Time;durP1;ratioP1;P1;durP2;ratioP2;P2;SDS_P1;SDS_P2;PMS_P1;PMS_P2;Temp;Humidity;BMP_temperature;BMP_pressure;BME280_temperature;BME280_humidity;BME280_pressure;Samples;Min_cycle;Max_cycle;Signal;HPM_P1;HPM_P2
2022/12/05 00:02:08;;;;;;;109.18;32.80;;;;;;;1.58;100.00;101701.41;5203291;28;20037;-75
2022/12/05 00:04:39;;;;;;;113.82;34.42;;;;;;;1.59;100.00;101701.31;5202561;28;20125;-75
2022/12/05 00:07:09;;;;;;;106.32;32.17;;;;;;;1.59;100.00;101700.47;5202480;28;20048;-74
2022/12/05 00:09:40;;;;;;;106.45;33.10;;;;;;;1.59;100.00;101697.81;5202205;28;20105;-74
2022/12/05 00:12:11;;;;;;;110.10;32.83;;;;;;;1.59;100.00;101697.81;5202080;28;20029;-75
2022/12/05 00:14:41;;;;;;;109.18;34.33;;;;;;;1.58;100.00;101701.41;5202703;28;20301;-74
2022/12/05 00:17:11;;;;;;;102.75;32.03;;;;;;;1.57;100.00;101705.84;5202575;28;20075;-73
2022/12/05 00:19:42;;;;;;;121.93;35.15;;;;;;;1.57;100.00;101700.56;5201638;28;20428;-74
2022/12/05 00:22:12;;;;;;;112.13;32.67;;;;;;;1.57;100.00;101703.22;5202468;28;20033;-74
2022/12/05 00:24:43;;;;;;;124.70;33.95;;;;;;;1.58;100.00;101704.06;5203083;28;20022;-73
2022/12/05 00:27:13;;;;;;;103.63;30.60;;;;;;;1.57;100.00;101703.22;5202353;28;20041;-74
2022/12/05 00:29:44;;;;;;;118.03;34.95;;;;;;;1.60;100.00;101699.53;5202765;28;20049;-74
2022/12/05 00:32:14;;;;;;;101.88;32.42;;;;;;;1.59;100.00;101701.31;5202521;28;20025;-74
2022/12/05 00:34:45;;;;;;;119.10;33.20;;;;;;;1.59;100.00;101706.59;5202601;28;20025;-74
2022/12/05 00:37:15;;;;;;;125.22;33.90;;;;;;;1.60;100.00;101704.81;5202107;28;20084;-75
2022/12/05 00:39:46;;;;;;;101.82;32.58;;;;;;;1.59;100.00;101703.97;5202626;28;20039;-74
2022/12/05 00:42:16;;;;;;;107.65;31.65;;;;;;;1.61;100.00;101698.56;5202800;28;20497;-74
2022/12/05 00:44:48;;;;;;;111.38;33.47;;;;;;;1.61;100.00;101702.09;5202496;28;20434;-74
2022/12/05 00:47:19;;;;;;;124.28;34.10;;;;;;;1.62;100.00;101709.09;5201950;28;20549;-74
2022/12/05 00:49:49;;;;;;;105.50;33.67;;;;;;;1.63;100.00;101704.66;5202813;28;20033;-74
2022/12/05 00:52:20;;;;;;;118.85;34.70;;;;;;;1.63;100.00;101707.28;5202957;28;20084;-74
2022/12/05 00:54:50;;;;;;;123.50;33.17;;;;;;;1.62;100.00;101714.38;5203115;28;20034;-73
2022/12/05 00:57:20;;;;;;;115.43;33.25;;;;;;;1.61;100.00;101712.69;5202023;28;20565;-73
2022/12/05 00:59:51;;;;;;;114.18;32.97;;;;;;;1.63;100.00;101709.94;5202475;28;20025;-74
2022/12/05 01:02:22;;;;;;;105.43;33.72;;;;;;;1.62;100.00;101714.38;5202785;28;20383;-73
2022/12/05 01:04:53;;;;;;;109.65;33.20;;;;;;;1.62;100.00;101711.72;5202638;28;20433;-73
2022/12/05 01:07:23;;;;;;;103.20;32.83;;;;;;;1.62;100.00;101706.44;5202747;28;20032;-74
2022/12/05 01:09:54;;;;;;;115.05;33.92;;;;;;;1.63;100.00;101720.50;5201825;28;20432;-74
2022/12/05 01:12:24;;;;;;;115.60;33.97;;;;;;;1.62;100.00;101717.03;5202989;28;20507;-74
2022/12/05 01:14:54;;;;;;;114.82;31.83;;;;;;;1.63;100.00;101724.00;5202651;28;20113;-74
2022/12/05 01:17:25;;;;;;;106.47;33.58;;;;;;;1.64;100.00;101722.22;5204529;28;20017;-74
2022/12/05 01:19:56;;;;;;;110.40;33.85;;;;;;;1.64;100.00;101723.06;5206481;28;20021;-74
2022/12/05 01:22:26;;;;;;;111.63;33.78;;;;;;;1.64;100.00;101722.22;5205769;28;20420;-74
2022/12/05 01:24:57;;;;;;;106.60;34.75;;;;;;;1.65;100.00;101727.41;5205079;28;20472;-74
2022/12/05 01:27:28;;;;;;;110.85;32.78;;;;;;;1.66;100.00;101720.34;5200721;28;20014;-75
2022/12/05 01:29:59;;;;;;;108.25;32.92;;;;;;;1.67;100.00;101732.63;5198030;28;20071;-74
2022/12/05 01:32:29;;;;;;;119.70;32.97;;;;;;;1.68;100.00;101729.03;5205858;28;20478;-74
2022/12/05 01:34:59;;;;;;;120.97;35.85;;;;;;;1.67;100.00;101733.47;5205503;28;20028;-75
2022/12/05 01:37:30;;;;;;;110.97;34.75;;;;;;;1.68;100.00;101735.19;5205589;28;20479;-74
2022/12/05 01:40:01;;;;;;;117.28;34.60;;;;;;;1.67;100.00;101732.63;5205933;28;20029;-74
2022/12/05 01:42:31;;;;;;;112.22;34.10;;;;;;;1.67;100.00;101738.78;5206002;28;20025;-74
2022/12/05 01:45:11;;;;;;;113.13;32.92;;;;;;;1.68;100.00;101736.97;5205670;28;20021;-74
2022/12/05 01:47:43;;;;;;;108.90;33.13;;;;;;;1.69;100.00;101738.69;5205928;28;20228;-73
2022/12/05 01:50:13;;;;;;;105.82;33.80;;;;;;;1.71;100.00;101742.97;5206148;28;20033;-75
2022/12/05 01:52:44;;;;;;;123.47;35.20;;;;;;;1.70;100.00;101740.38;5206788;28;20083;-74
2022/12/05 01:55:16;;;;;;;131.32;35.28;;;;;;;1.69;100.00;101744.81;5206552;28;20464;-74
2022/12/05 01:57:48;;;;;;;120.95;34.13;;;;;;;1.70;100.00;101748.31;5205525;28;20388;-74
2022/12/05 02:00:19;;;;;;;122.90;35.22;;;;;;;1.69;100.00;101739.53;5204312;28;20108;-73
2022/12/05 02:02:58;;;;;;;111.22;34.90;;;;;;;1.71;100.00;101748.25;5206225;28;20025;-74
2022/12/05 02:05:34;;;;;;;116.38;35.47;;;;;;;1.72;100.00;101749.09;5206010;28;20116;-74
2022/12/05 02:08:09;;;;;;;121.15;33.97;;;;;;;1.72;100.00;101741.16;5205248;28;20060;-73
2022/12/05 02:10:43;;;;;;;116.03;33.72;;;;;;;1.71;100.00;101742.09;5205371;28;20044;-73
2022/12/05 02:13:51;;;;;;;131.13;34.75;;;;;;;1.73;100.00;101740.22;5205703;28;20029;-73
2022/12/05 02:16:36;;;;;;;119.43;34.72;;;;;;;1.74;100.00;101747.19;5205595;28;20025;-74
2022/12/05 02:19:40;;;;;;;133.00;34.28;;;;;;;1.74;100.00;101745.41;5205122;28;20025;-74
2022/12/05 02:22:38;;;;;;;122.00;34.40;;;;;;;1.74;100.00;101747.19;5205570;28;20061;-74
2022/12/05 02:25:45;;;;;;;110.00;34.67;;;;;;;1.77;100.00;101755.81;5205009;28;20107;-74
2022/12/05 02:28:32;;;;;;;121.90;36.35;;;;;;;1.76;100.00;101754.13;5193287;28;20021;-74
2022/12/05 02:31:29;;;;;;;117.40;34.45;;;;;;;1.76;100.00;101751.47;5192510;28;20112;-74
2022/12/05 02:34:18;;;;;;;120.90;35.35;;;;;;;1.78;100.00;101746.09;5205245;28;20025;-74
2022/12/05 02:37:35;;;;;;;121.47;34.92;;;;;;;1.77;100.00;101745.25;5204821;28;20604;-74
2022/12/05 02:40:13;;;;;;;;;;;;;;;1.78;100.00;101743.44;5195800;28;20042;-74
2022/12/05 02:42:58;;;;;;;134.35;33.67;;;;;;;1.77;100.00;101742.59;5205575;28;19948;-74
2022/12/05 02:45:33;;;;;;;118.78;33.90;;;;;;;1.79;100.00;101732.78;5204859;28;20071;-74
2022/12/05 02:48:05;;;;;;;126.55;34.33;;;;;;;1.79;100.00;101737.22;5204355;28;20028;-75
2022/12/05 02:50:39;;;;;;;117.82;32.95;;;;;;;1.79;100.00;101729.28;5205102;28;20021;-75
2022/12/05 02:53:13;;;;;;;114.28;33.30;;;;;;;1.76;100.00;101735.59;5205109;28;20038;-73
2022/12/05 02:55:45;;;;;;;124.63;35.65;;;;;;;1.76;100.00;101743.53;5205020;28;20097;-74
2022/12/05 02:58:29;;;;;;;115.60;33.65;;;;;;;1.75;100.00;101733.03;5203764;28;20477;-74
2022/12/05 03:01:01;;;;;;;108.15;33.08;;;;;;;1.72;100.00;101734.06;5203513;28;20029;-74
2022/12/05 03:03:32;;;;;;;117.60;33.30;;;;;;;1.69;100.00;101731.59;5205030;28;20053;-74
2022/12/05 03:06:14;;;;;;;121.32;33.00;;;;;;;1.65;100.00;101727.41;5204479;28;20076;-75
2022/12/05 03:08:50;;;;;;;105.45;33.72;;;;;;;1.65;100.00;101724.75;5203923;28;20052;-75
2022/12/05 03:11:21;;;;;;;102.82;32.70;;;;;;;1.63;100.00;101728.44;5204325;28;20540;-74
2022/12/05 03:13:56;;;;;;;111.50;32.95;;;;;;;1.58;100.00;101731.34;5204664;28;20025;-75
2022/12/05 03:16:36;;;;;;;130.27;35.65;;;;;;;1.55;100.00;101734.16;5204216;28;20086;-75
2022/12/05 03:19:48;;;;;;;116.10;34.58;;;;;;;1.52;100.00;101732.56;5203620;28;20031;-75
2022/12/05 03:22:31;;;;;;;131.20;36.45;;;;;;;1.53;100.00;101733.41;5204170;28;20283;-74
2022/12/05 03:25:03;;;;;;;112.60;33.40;;;;;;;1.52;100.00;101732.56;5204182;28;20027;-74
2022/12/05 03:27:48;;;;;;;114.30;33.97;;;;;;;1.54;100.00;101735.94;5203397;28;20036;-75
2022/12/05 03:30:21;;;;;;;;;;;;;;;1.55;100.00;101728.88;5204693;28;20028;-74
2022/12/05 03:33:12;;;;;;;108.75;32.47;;;;;;;1.52;100.00;101729.06;5204102;28;19916;-74
2022/12/05 03:36:05;;;;;;;126.10;36.00;;;;;;;1.53;100.00;101733.41;5203733;28;20029;-73
2022/12/05 03:38:57;;;;;;;117.80;33.90;;;;;;;1.53;100.00;101726.31;5203793;28;20113;-74
2022/12/05 03:41:55;;;;;;;136.27;34.65;;;;;;;1.51;100.00;101728.22;5203255;28;20108;-73
2022/12/05 03:44:35;;;;;;;112.70;35.00;;;;;;;1.50;100.00;101730.91;5203875;28;20031;-74
2022/12/05 03:47:18;;;;;;;120.45;34.75;;;;;;;1.50;100.00;101737.06;5203509;28;20365;-74
2022/12/05 03:49:51;;;;;;;109.57;32.60;;;;;;;1.49;100.00;101734.50;5203814;28;20051;-74
2022/12/05 03:52:52;;;;;;;129.05;35.58;;;;;;;1.48;100.00;101738.94;5204199;28;20060;-75
2022/12/05 03:55:27;;;;;;;121.00;34.60;;;;;;;1.49;100.00;101745.94;5203973;28;20116;-74
2022/12/05 03:58:07;;;;;;;119.63;36.07;;;;;;;1.49;100.00;101740.66;5203563;28;20037;-74
2022/12/05 04:00:44;;;;;;;128.50;35.03;;;;;;;1.50;100.00;101742.34;5203398;28;20268;-74
2022/12/05 04:03:21;;;;;;;125.43;36.40;;;;;;;1.50;100.00;101742.34;5203488;28;20030;-74
2022/12/05 04:05:55;;;;;;;127.43;36.85;;;;;;;1.51;100.00;101744.09;5203243;28;20025;-74
2022/12/05 04:08:32;;;;;;;122.55;36.75;;;;;;;1.54;100.00;101743.88;5203110;28;20075;-74
2022/12/05 04:11:12;;;;;;;124.47;35.20;;;;;;;1.53;100.00;101744.84;5202986;28;20029;-73
2022/12/05 04:13:53;;;;;;;125.45;34.10;;;;;;;1.53;100.00;101742.19;5203562;28;20051;-72
2022/12/05 04:19:27;;;;;;;122.60;35.40;;;;;;;1.55;100.00;101745.59;5202840;28;20490;-74
2022/12/05 04:21:57;;;;;;;130.18;34.80;;;;;;;1.57;100.00;101744.69;5203248;28;20478;-74
2022/12/05 04:27:46;;;;;;;134.52;35.38;;;;;;;1.60;100.00;101753.28;5198929;28;20480;-73
2022/12/05 04:30:22;;;;;;;122.15;36.33;;;;;;;1.61;100.00;101741.78;5196762;28;20033;-74
2022/12/05 04:33:14;;;;;;;138.90;35.22;;;;;;;1.64;100.00;101744.22;5203439;28;20029;-74
2022/12/05 04:36:00;;;;;;;126.75;34.53;;;;;;;1.65;100.00;101743.28;5203167;28;20025;-74
2022/12/05 04:38:45;;;;;;;119.22;35.75;;;;;;;1.67;100.00;101749.34;5202051;28;20060;-74
2022/12/05 04:41:26;;;;;;;137.13;35.13;;;;;;;1.67;100.00;101749.34;5203043;28;20029;-73
2022/12/05 04:44:00;;;;;;;142.93;37.28;;;;;;;1.68;100.00;101748.41;5202877;28;20052;-74
2022/12/05 04:46:32;;;;;;;124.03;38.63;;;;;;;1.68;100.00;101751.06;5202183;28;20025;-73
2022/12/05 04:49:08;;;;;;;119.13;35.42;;;;;;;1.70;100.00;101757.09;5202411;28;20033;-74
2022/12/05 04:51:40;;;;;;;;;;;;;;;1.70;100.00;101764.19;5204494;28;20025;-74
2022/12/05 04:54:16;;;;;;;126.55;36.20;;;;;;;1.72;100.00;101764.97;5207273;28;19935;-73
2022/12/05 04:56:51;;;;;;;128.25;37.95;;;;;;;1.74;100.00;101763.94;5206623;28;20059;-73
2022/12/05 04:59:22;;;;;;;139.35;37.72;;;;;;;1.74;100.00;101761.28;5206791;28;20412;-73
2022/12/05 05:01:59;;;;;;;118.25;37.28;;;;;;;1.75;100.00;101760.34;5206893;28;20056;-73
2022/12/05 05:04:35;;;;;;;116.50;33.67;;;;;;;1.77;100.00;101771.69;5206806;28;20104;-74
2022/12/05 05:07:11;;;;;;;117.57;37.22;;;;;;;1.77;100.00;101766.41;5206592;28;20018;-74
2022/12/05 05:09:43;;;;;;;126.15;36.28;;;;;;;1.77;100.00;101761.13;5206139;28;20033;-74
2022/12/05 05:12:13;;;;;;;119.22;34.60;;;;;;;1.78;100.00;101762.81;5206683;28;20029;-73
2022/12/05 05:14:44;;;;;;;120.95;35.47;;;;;;;1.81;100.00;101762.66;5206419;28;20021;-74
2022/12/05 05:17:14;;;;;;;122.82;36.95;;;;;;;1.79;100.00;101767.16;5206024;28;20100;-73
2022/12/05 05:19:45;;;;;;;118.57;35.53;;;;;;;1.80;100.00;101775.94;5206694;28;20021;-74
2022/12/05 05:22:15;;;;;;;121.43;35.45;;;;;;;1.83;100.00;101781.09;5206854;28;20038;-74
2022/12/05 05:24:46;;;;;;;119.03;36.85;;;;;;;1.84;100.00;101784.56;5206510;28;20013;-73
2022/12/05 05:27:16;;;;;;;131.68;35.90;;;;;;;1.83;100.00;101780.22;5205630;28;20028;-74
2022/12/05 05:29:46;;;;;;;123.38;34.38;;;;;;;1.84;100.00;101777.50;5206330;28;20053;-73
2022/12/05 05:32:17;;;;;;;123.50;35.15;;;;;;;1.84;100.00;101782.78;5205745;28;20535;-73
2022/12/05 05:34:47;;;;;;;125.88;35.13;;;;;;;1.85;100.00;101789.78;5206089;28;20037;-74
2022/12/05 05:37:18;;;;;;;119.55;38.00;;;;;;;1.87;100.00;101787.06;5205509;28;20538;-74
2022/12/05 05:39:48;;;;;;;108.97;35.05;;;;;;;1.90;100.00;101787.72;5206108;28;20045;-74
2022/12/05 05:42:18;;;;;;;124.07;35.78;;;;;;;1.91;100.00;101788.56;5206203;28;20051;-74
2022/12/05 05:44:49;;;;;;;114.22;35.20;;;;;;;1.90;100.00;101795.66;5206106;28;20483;-73
2022/12/05 05:47:19;;;;;;;108.80;34.13;;;;;;;1.89;100.00;101793.97;5205300;28;20072;-73
2022/12/05 05:49:50;;;;;;;114.85;34.10;;;;;;;1.90;100.00;101790.38;5206102;28;20483;-74
2022/12/05 05:52:20;;;;;;;127.40;36.55;;;;;;;1.90;100.00;101787.72;5205975;28;20034;-73
2022/12/05 05:54:51;;;;;;;110.80;33.58;;;;;;;1.91;100.00;101794.75;5206090;28;20454;-73
2022/12/05 05:57:21;;;;;;;124.85;36.42;;;;;;;1.92;100.00;101790.28;5205133;28;20041;-74
2022/12/05 05:59:52;;;;;;;117.07;35.47;;;;;;;1.92;100.00;101790.28;5205471;28;20475;-74
2022/12/05 06:02:22;;;;;;;107.35;34.28;;;;;;;1.94;100.00;101791.06;5205370;28;20036;-73
2022/12/05 06:04:53;;;;;;;126.18;35.83;;;;;;;1.94;100.00;101791.91;5204958;28;20033;-73
2022/12/05 06:07:23;;;;;;;132.95;37.00;;;;;;;1.95;100.00;101792.75;5205107;28;20091;-73
2022/12/05 06:09:54;;;;;;;137.93;37.90;;;;;;;1.95;100.00;101800.69;5205187;28;20075;-73
2022/12/05 06:12:24;;;;;;;125.45;35.55;;;;;;;1.97;100.00;101801.47;5205309;28;20036;-74
2022/12/05 06:14:54;;;;;;;128.65;35.75;;;;;;;1.97;100.00;101806.75;5205452;28;20017;-74
2022/12/05 06:17:25;;;;;;;129.45;37.05;;;;;;;1.97;100.00;101804.97;5204728;28;20029;-73
2022/12/05 06:19:56;;;;;;;122.63;36.17;;;;;;;1.98;100.00;101805.81;5205681;28;20052;-74
2022/12/05 06:22:26;;;;;;;131.45;37.45;;;;;;;1.98;100.00;101811.13;5205025;28;20024;-73
2022/12/05 06:24:57;;;;;;;130.90;37.13;;;;;;;1.99;100.00;101807.53;5205161;28;20479;-74
2022/12/05 06:27:30;;;;;;;125.22;36.58;;;;;;;2.00;100.00;101806.56;5204309;28;20023;-73
2022/12/05 06:30:00;;;;;;;124.60;34.20;;;;;;;2.01;100.00;101813.59;5205264;28;20428;-73
2022/12/05 06:32:31;;;;;;;140.95;39.55;;;;;;;2.03;100.00;101801.13;5205181;28;20053;-73
2022/12/05 06:35:07;;;;;;;123.43;37.17;;;;;;;2.03;100.00;101803.75;5204704;28;20025;-73
2022/12/05 06:37:38;;;;;;;135.77;38.25;;;;;;;2.05;100.00;101807.16;5204666;28;20036;-73
2022/12/05 06:40:12;;;;;;;117.68;33.92;;;;;;;2.07;100.00;101805.31;5204980;28;20021;-74
2022/12/05 06:42:42;;;;;;;122.60;37.92;;;;;;;2.08;100.00;101807.84;5205148;28;20028;-74
2022/12/05 06:45:12;;;;;;;130.55;37.33;;;;;;;2.10;100.00;101809.56;5204780;28;20491;-73
2022/12/05 06:47:43;;;;;;;133.50;36.08;;;;;;;2.09;100.00;101816.63;5204276;28;20028;-74
2022/12/05 06:50:13;;;;;;;133.80;37.92;;;;;;;2.10;100.00;101821.00;5204892;28;20025;-74
2022/12/05 06:52:44;;;;;;;129.57;36.42;;;;;;;2.10;100.00;101821.00;5205168;28;20495;-74
2022/12/05 06:55:14;;;;;;;120.57;37.22;;;;;;;2.08;100.00;101823.72;5204999;28;20029;-75
2022/12/05 06:57:45;;;;;;;139.68;35.55;;;;;;;2.11;100.00;101822.72;5204499;28;20026;-74
2022/12/05 07:03:05;;;;;;;116.78;35.25;;;;;;;2.12;100.00;101826.22;5205710;28;20052;-74
2022/12/05 07:05:35;;;;;;;128.27;36.42;;;;;;;2.12;100.00;101839.44;5204862;28;20025;-74
2022/12/05 07:08:06;;;;;;;115.78;36.47;;;;;;;2.12;100.00;101832.34;5204572;28;20380;-74
2022/12/05 07:10:36;;;;;;;130.10;37.88;;;;;;;2.13;100.00;101830.56;5204126;28;20033;-75
2022/12/05 07:13:06;;;;;;;124.90;36.25;;;;;;;2.13;100.00;101835.84;5203450;28;20087;-75
2022/12/05 07:15:37;;;;;;;123.30;36.58;;;;;;;2.14;100.00;101842.84;5204110;28;20506;-75
2022/12/05 07:18:07;;;;;;;134.70;36.90;;;;;;;2.13;100.00;101846.44;5204019;28;20052;-75
2022/12/05 07:20:39;;;;;;;123.78;36.42;;;;;;;2.10;100.00;101842.16;5204213;28;20057;-75
2022/12/05 07:23:10;;;;;;;126.45;36.90;;;;;;;2.08;100.00;101839.63;5204251;28;20033;-75
2022/12/05 07:25:40;;;;;;;126.28;36.10;;;;;;;2.10;100.00;101849.25;5204226;28;20022;-75
2022/12/05 07:28:11;;;;;;;125.90;35.95;;;;;;;2.09;100.00;101851.06;5192901;28;20029;-76
2022/12/05 07:30:41;;;;;;;123.95;37.83;;;;;;;2.09;100.00;101856.34;5201489;28;20053;-76
2022/12/05 07:33:12;;;;;;;130.52;35.88;;;;;;;2.09;100.00;101851.06;5203975;28;20112;-75
2022/12/05 07:35:42;;;;;;;114.18;34.17;;;;;;;2.10;100.00;101858.03;5203649;28;20025;-75
2022/12/05 07:38:12;;;;;;;138.85;36.42;;;;;;;2.11;100.00;101854.47;5203146;28;20103;-75
2022/12/05 07:40:43;;;;;;;124.40;36.10;;;;;;;2.14;100.00;101858.72;5204310;28;20036;-75
2022/12/05 07:43:13;;;;;;;126.70;36.42;;;;;;;2.14;100.00;101859.59;5203873;28;20104;-73
2022/12/05 07:45:44;;;;;;;122.18;36.03;;;;;;;2.15;100.00;101850.69;5203382;28;20540;-73
2022/12/05 07:48:14;;;;;;;106.35;34.55;;;;;;;2.17;100.00;101855.94;5202972;28;20036;-73
2022/12/05 07:50:45;;;;;;;120.20;33.78;;;;;;;2.16;100.00;101855.06;5203875;28;20506;-73
2022/12/05 07:53:15;;;;;;;112.63;36.22;;;;;;;2.18;100.00;101866.41;5203876;28;20108;-73
2022/12/05 07:55:45;;;;;;;111.53;35.08;;;;;;;2.19;100.00;101868.13;5204038;28;20045;-73
2022/12/05 07:58:16;;;;;;;118.93;34.30;;;;;;;2.17;100.00;101864.72;5202644;28;20032;-73
2022/12/05 08:00:46;;;;;;;102.55;32.35;;;;;;;2.19;100.00;101873.41;5203600;28;20032;-73
2022/12/05 08:03:17;;;;;;;120.72;33.78;;;;;;;2.19;100.00;101877.84;5203743;28;20036;-73
2022/12/05 08:05:47;;;;;;;100.28;31.20;;;;;;;2.19;100.00;101877.84;5202568;28;20057;-73
2022/12/05 08:08:17;;;;;;;111.72;33.70;;;;;;;2.19;100.00;101881.34;5203274;28;20017;-73
2022/12/05 08:10:48;;;;;;;105.95;32.97;;;;;;;2.21;100.00;101881.25;5203069;28;20044;-73
2022/12/05 08:13:18;;;;;;;109.57;34.47;;;;;;;2.22;100.00;101889.13;5203528;28;20025;-73
2022/12/05 08:15:49;;;;;;;100.22;31.70;;;;;;;2.25;100.00;101888.94;5203297;28;20025;-73
2022/12/05 08:18:19;;;;;;;109.97;33.05;;;;;;;2.26;100.00;101895.97;5202494;28;20029;-73
2022/12/05 08:20:50;;;;;;;103.15;31.73;;;;;;;2.27;100.00;101892.38;5203359;28;20116;-74
2022/12/05 08:23:20;;;;;;;103.20;32.15;;;;;;;2.29;100.00;101894.94;5202851;28;20059;-73
2022/12/05 08:25:51;;;;;;;101.25;32.95;;;;;;;2.29;100.00;101895.78;5202666;28;20026;-73
2022/12/05 08:28:21;;;;;;;126.55;34.88;;;;;;;2.32;100.00;101905.34;5191304;28;20537;-73
2022/12/05 08:30:52;;;;;;;113.07;32.47;;;;;;;2.36;100.00;101900.72;5194075;28;20394;-73
2022/12/05 08:33:23;;;;;;;109.53;33.10;;;;;;;2.39;100.00;101903.19;5200440;28;20029;-73
2022/12/05 08:35:53;;;;;;;103.60;33.33;;;;;;;2.41;100.00;101901.31;5201466;28;20030;-73
2022/12/05 08:38:24;;;;;;;105.68;32.00;;;;;;;2.43;100.00;101910.88;5200805;28;20533;-74
2022/12/05 08:40:54;;;;;;;105.18;33.42;;;;;;;2.45;100.00;101916.09;5201510;28;20080;-73
2022/12/05 08:43:24;;;;;;;117.15;34.40;;;;;;;2.49;100.00;101913.19;5201870;28;20025;-73
2022/12/05 08:45:55;;;;;;;109.47;34.95;;;;;;;2.53;100.00;101914.72;5201493;28;20053;-74
2022/12/05 08:48:27;;;;;;;117.90;34.47;;;;;;;2.55;100.00;101912.81;5199297;28;20329;-73
2022/12/05 08:50:58;;;;;;;110.68;34.50;;;;;;;2.62;100.00;101923.94;5201667;28;20391;-74
2022/12/05 08:53:29;;;;;;;108.97;33.10;;;;;;;2.66;100.00;101921.94;5201944;28;20025;-74
2022/12/05 08:56:01;;;;;;;103.50;32.33;;;;;;;2.68;100.00;101926.22;5201790;28;20032;-75
2022/12/05 08:58:32;;;;;;;109.38;33.47;;;;;;;2.70;100.00;101918.19;5200747;28;20117;-75
2022/12/05 09:01:13;;;;;;;99.25;31.85;;;;;;;2.74;100.00;101928.50;5201172;28;20432;-75
2022/12/05 09:03:44;;;;;;;111.15;33.90;;;;;;;2.75;100.00;101930.22;5201913;28;20034;-75
2022/12/05 09:06:23;;;;;;;101.10;31.42;;;;;;;2.78;100.00;101930.03;5201939;28;20036;-75
2022/12/05 09:08:59;;;;;;;95.15;30.65;;;;;;;2.83;100.00;101932.44;5201011;28;20076;-75
2022/12/05 09:11:33;;;;;;;95.18;31.92;;;;;;;2.83;100.00;101935.94;5201152;28;20086;-75
2022/12/05 09:14:04;;;;;;;100.18;31.00;;;;;;;2.83;100.00;101937.72;5201389;28;20563;-75
2022/12/05 09:16:36;;;;;;;89.57;29.38;;;;;;;2.80;100.00;101932.59;5201328;28;20249;-75
2022/12/05 09:19:19;;;;;;;95.20;31.60;;;;;;;2.85;100.00;101941.97;5200723;28;20017;-75
2022/12/05 09:21:50;;;;;;;90.72;30.80;;;;;;;2.85;100.00;101943.78;5200788;28;20442;-75
2022/12/05 09:24:21;;;;;;;98.10;31.27;;;;;;;2.87;100.00;101943.72;5201293;28;20029;-76
2022/12/05 09:26:51;;;;;;;91.97;30.67;;;;;;;2.89;100.00;101942.66;5200751;28;20025;-75
2022/12/05 09:29:24;;;;;;;85.88;29.10;;;;;;;2.91;100.00;101943.41;5187611;28;20407;-75
2022/12/05 09:31:54;;;;;;;103.15;31.95;;;;;;;2.91;100.00;101947.88;5200145;28;20018;-75
2022/12/05 09:34:25;;;;;;;98.70;33.22;;;;;;;2.92;100.00;101947.81;5199781;28;20403;-75
2022/12/05 09:36:56;;;;;;;93.82;30.95;;;;;;;2.89;100.00;101947.13;5200324;28;20100;-76
2022/12/05 09:39:27;;;;;;;86.63;29.23;;;;;;;2.90;100.00;101948.81;5204845;28;20108;-75
2022/12/05 09:42:35;;;;;;;87.78;30.10;;;;;;;2.93;100.00;101951.31;5204537;28;20029;-75
2022/12/05 09:45:22;;;;;;;90.57;31.75;;;;;;;2.97;100.00;101952.84;5204878;28;20036;-76
2022/12/05 09:48:09;;;;;;;105.75;31.02;;;;;;;3.01;100.00;101955.22;5204202;28;20364;-74
2022/12/05 09:50:56;;;;;;;86.03;33.35;;;;;;;3.02;100.00;101954.25;5204492;28;20033;-75
2022/12/05 09:53:38;;;;;;;98.88;32.67;;;;;;;3.06;100.00;101954.91;5204591;28;20361;-75
2022/12/05 09:56:22;;;;;;;93.97;31.13;;;;;;;3.06;100.00;101954.91;5204609;28;20055;-76
2022/12/05 09:58:55;;;;;;;78.50;28.42;;;;;;;3.05;100.00;101959.38;5204205;28;20017;-75
2022/12/05 10:01:30;;;;;;;80.63;28.83;;;;;;;3.06;100.00;101955.81;5203801;28;20475;-75
2022/12/05 10:04:25;;;;;;;81.25;29.38;;;;;;;3.08;100.00;101958.34;5204801;28;20438;-75
2022/12/05 10:07:07;;;;;;;72.73;26.10;;;;;;;3.09;100.00;101957.41;5203812;28;20039;-75
2022/12/05 10:09:53;;;;;;;76.45;27.23;;;;;;;3.10;100.00;101962.59;5203446;28;20113;-75
2022/12/05 10:12:33;;;;;;;70.72;26.40;;;;;;;3.13;100.00;101963.38;5203009;28;20044;-75
2022/12/05 10:15:33;;;;;;;70.10;25.17;;;;;;;3.15;100.00;101957.03;5204277;28;20104;-75
2022/12/05 10:18:19;;;;;;;73.82;25.95;;;;;;;3.16;100.00;101963.19;5203280;28;20687;-75
2022/12/05 10:21:00;;;;;;;60.78;23.73;;;;;;;3.11;100.00;101959.03;5204110;28;20021;-75
2022/12/05 10:23:50;;;;;;;65.88;24.70;;;;;;;3.04;100.00;101957.66;5204704;28;20471;-75
2022/12/05 10:26:22;;;;;;;70.07;25.33;;;;;;;3.09;100.00;101944.13;5195487;28;20032;-75
2022/12/05 10:29:20;;;;;;;65.40;24.63;;;;;;;3.16;100.00;101956.06;5203410;28;20045;-73
2022/12/05 10:31:54;;;;;;;65.85;26.45;;;;;;;3.21;100.00;101953.16;5204188;28;20048;-75
2022/12/05 10:34:33;;;;;;;64.22;25.88;;;;;;;3.25;100.00;101959.97;5203720;28;20021;-75
2022/12/05 10:37:06;;;;;;;66.60;24.33;;;;;;;3.29;100.00;101956.22;5203386;28;20112;-75
2022/12/05 10:39:37;;;;;;;61.20;23.10;;;;;;;3.31;100.00;101957.84;5202481;28;20029;-75
2022/12/05 10:42:14;;;;;;;57.28;23.80;;;;;;;3.35;100.00;101964.63;5204167;28;20372;-75
2022/12/05 10:44:45;;;;;;;65.80;25.27;;;;;;;3.40;100.00;101963.50;5204191;28;20356;-75
2022/12/05 10:47:16;;;;;;;63.25;25.25;;;;;;;3.38;100.00;101961.81;5203219;28;20028;-75
2022/12/05 10:49:47;;;;;;;64.88;24.17;;;;;;;3.37;100.00;101960.13;5200395;28;20018;-75
2022/12/05 10:52:17;;;;;;;53.47;23.08;;;;;;;3.35;100.00;101966.44;5203011;28;20025;-75
2022/12/05 10:54:54;;;;;;;56.85;22.00;;;;;;;3.33;100.00;101961.25;5203432;28;20032;-75
2022/12/05 10:57:28;;;;;;;47.00;21.08;;;;;;;3.29;100.00;101961.50;5202797;28;20025;-75
2022/12/05 11:00:11;;;;;;;59.40;23.23;;;;;;;3.23;100.00;101960.09;5203078;28;20096;-75
2022/12/05 11:02:42;;;;;;;62.63;23.05;;;;;;;3.26;100.00;101959.91;5203397;28;20025;-75
2022/12/05 11:05:12;;;;;;;58.58;22.95;;;;;;;3.26;100.00;101962.56;5202230;28;20051;-75
2022/12/05 11:07:43;;;;;;;54.67;22.00;;;;;;;3.30;100.00;101960.56;5202690;28;20471;-75
2022/12/05 11:10:24;;;;;;;52.65;22.02;;;;;;;3.34;100.00;101964.75;5203016;28;20391;-75
2022/12/05 11:12:57;;;;;;;48.33;20.40;;;;;;;3.42;100.00;101961.66;5203209;28;20056;-75
2022/12/05 11:15:29;;;;;;;66.72;25.02;;;;;;;3.38;100.00;101959.16;5203184;28;20033;-75
2022/12/05 11:18:26;;;;;;;47.92;20.52;;;;;;;3.36;100.00;101958.41;5203179;28;20414;-75
2022/12/05 11:21:12;;;;;;;52.58;21.48;;;;;;;3.36;100.00;101957.53;5202892;28;20021;-75
2022/12/05 11:23:42;;;;;;;58.42;22.52;;;;;;;3.35;100.00;101959.34;5203247;28;20043;-75
2022/12/05 11:26:32;;;;;;;50.60;20.88;;;;;;;3.35;100.00;101959.34;5203253;28;20025;-75
2022/12/05 11:29:03;;;;;;;47.90;19.98;;;;;;;3.29;100.00;101959.72;5202752;28;20029;-76
2022/12/05 11:31:34;;;;;;;44.88;19.58;;;;;;;3.32;100.00;101964.84;5202646;28;20021;-75
2022/12/05 11:34:23;;;;;;;51.13;21.08;;;;;;;3.31;100.00;101957.84;5202895;28;20021;-75
2022/12/05 11:37:03;;;;;;;50.42;20.52;;;;;;;3.29;100.00;101953.56;5202272;28;20035;-76
2022/12/05 11:39:34;;;;;;;47.30;21.45;;;;;;;3.33;100.00;101955.09;5202124;28;20017;-75
2022/12/05 11:42:17;;;;;;;48.40;19.88;;;;;;;3.41;100.00;101946.66;5202198;28;20029;-75
2022/12/05 11:45:28;;;;;;;43.00;18.80;;;;;;;3.48;100.00;101945.34;5202528;28;20025;-76
2022/12/05 11:48:40;;;;;;;49.95;20.63;;;;;;;3.46;100.00;101945.41;5202380;28;20029;-75
2022/12/05 11:51:27;;;;;;;43.20;19.02;;;;;;;3.54;100.00;101947.63;5190701;28;20501;-75